Time;durP1;ratioP1;P1;durP2;ratioP2;P2;SDS_P1;SDS_P2;PMS_P1;PMS_P2;Temp;Humidity;BMP_temperature;BMP_pressure;BME280_temperature;BME280_humidity;BME280_pressure;Samples;Min_cycle;Max_cycle;Signal;HPM_P1;HPM_P2
2023/09/27 00:04:34;;;;;;;;;;;;;;;15.86;81.37;100827.31;31225792;28;97513;-72
2023/09/27 00:19:34;;;;;;;32.03;17.83;;;;;;;15.66;81.36;100840.47;31225942;28;96794;-70
2023/09/27 00:34:35;;;;;;;24.40;16.42;;;;;;;15.52;81.27;100827.94;31222569;28;111077;-78
2023/09/27 00:49:35;;;;;;;31.08;19.77;;;;;;;15.29;81.40;100817.28;31221896;27;97626;-80
2023/09/27 01:04:36;;;;;;;32.75;19.70;;;;;;;15.17;81.74;100814.25;31221339;28;96728;-76
2023/09/27 01:19:38;;;;;;;31.25;17.92;;;;;;;15.05;81.95;100820.06;31220566;28;97203;-71
2023/09/27 01:34:38;;;;;;;27.13;17.03;;;;;;;14.91;82.11;100806.66;31217090;28;97083;-79
2023/09/27 01:49:39;;;;;;;34.33;19.23;;;;;;;14.80;82.68;100798.03;31215151;27;96760;-77
2023/09/27 02:04:39;;;;;;;32.85;19.00;;;;;;;14.69;82.60;100801.16;31196482;27;99976;-75
2023/09/27 02:19:39;;;;;;;28.27;16.50;;;;;;;14.52;83.02;100816.53;31213584;28;104730;-79
2023/09/27 02:34:40;;;;;;;27.27;15.98;;;;;;;14.38;83.10;100821.66;31193798;28;103511;-75
2023/09/27 02:49:40;;;;;;;28.58;15.70;;;;;;;14.28;83.47;100820.25;31211347;27;114198;-73
2023/09/27 03:04:40;;;;;;;27.30;15.80;;;;;;;14.17;83.76;100813.47;31207794;28;96729;-72
2023/09/27 03:19:41;;;;;;;27.83;16.20;;;;;;;14.08;83.98;100809.16;31224804;27;97494;-79
2023/09/27 03:34:41;;;;;;;31.02;16.95;;;;;;;14.00;83.86;100810.06;31226909;28;111791;-73
2023/09/27 03:49:41;;;;;;;28.90;16.67;;;;;;;13.83;84.01;100818.22;31225887;27;97135;-72
2023/09/27 04:04:42;;;;;;;32.90;19.75;;;;;;;13.78;84.44;100817.91;31225665;28;96679;-75
2023/09/27 04:19:42;;;;;;;37.42;19.83;;;;;;;13.69;84.92;100817.09;31220620;27;97314;-71
2023/09/27 04:34:42;;;;;;;33.50;18.60;;;;;;;13.62;85.08;100826.00;31219498;28;103084;-75
2023/09/27 04:49:43;;;;;;;32.95;18.17;;;;;;;13.60;85.11;100833.38;31216066;27;109702;-74
2023/09/27 05:04:43;;;;;;;32.90;19.17;;;;;;;13.61;85.43;100840.41;31215908;28;96785;-72
2023/09/27 05:19:44;;;;;;;31.13;18.55;;;;;;;13.87;85.32;100846.31;31216777;28;96733;-69
2023/09/27 05:34:44;;;;;;;28.10;20.20;;;;;;;14.37;85.46;100851.34;31213697;27;97441;-75
2023/09/27 05:49:44;;;;;;;27.25;17.58;;;;;;;15.21;85.62;100851.28;31213025;27;103183;-69
2023/09/27 06:04:48;;;;;;;21.15;14.88;;;;;;;16.24;84.83;100877.34;31192311;28;97655;-73
2023/09/27 06:19:49;;;;;;;22.57;14.47;;;;;;;17.35;83.82;100878.69;31208500;28;96643;-75
2023/09/27 06:34:52;;;;;;;16.73;11.70;;;;;;;18.57;82.01;100898.63;31207629;28;97599;-78
2023/09/27 06:49:52;;;;;;;11.73;9.40;;;;;;;19.91;81.03;100911.16;31205799;27;96769;-67
2023/09/27 07:04:54;;;;;;;14.00;9.20;;;;;;;20.77;76.70;100923.38;31207413;28;115269;-75
2023/09/27 07:19:55;;;;;;;16.00;11.10;;;;;;;21.54;74.68;100945.84;31202528;28;98244;-76
2023/09/27 07:34:58;;;;;;;14.13;8.70;;;;;;;22.35;73.95;100941.13;31204316;28;96856;-79
2023/09/27 07:49:59;;;;;;;10.53;7.67;;;;;;;23.63;71.13;100943.44;31197600;28;97556;-73
2023/09/27 08:04:59;;;;;;;9.80;6.03;;;;;;;25.55;65.12;100948.50;31217791;27;96816;-79
2023/09/27 08:20:00;;;;;;;8.82;5.45;;;;;;;26.92;61.16;100959.56;31220041;28;103654;-65
2023/09/27 08:35:02;;;;;;;10.00;5.43;;;;;;;30.37;52.89;100958.03;31220256;28;96892;-73
2023/09/27 08:50:04;;;;;;;7.47;4.87;;;;;;;38.88;36.84;100963.28;31222868;28;97451;-78
2023/09/27 09:05:06;;;;;;;12.83;4.77;;;;;;;44.32;25.20;100962.41;31218095;27;97386;-80
2023/09/27 09:35:33;;;;;;;7.80;3.80;;;;;;;48.83;17.56;100940.78;31208316;28;97282;-72
2023/09/27 09:50:34;;;;;;;6.33;3.43;;;;;;;50.76;15.66;100921.84;31213397;27;97549;-69
2023/09/27 10:05:38;;;;;;;6.00;3.15;;;;;;;52.24;13.25;100911.19;31210607;28;97372;-68
2023/09/27 10:21:02;;;;;;;7.93;3.00;;;;;;;54.12;11.13;100901.19;31211419;27;98506;-83
2023/09/27 10:36:02;;;;;;;9.30;2.77;;;;;;;54.01;10.81;100883.59;31210125;28;97645;-70
2023/09/27 10:51:03;;;;;;;6.07;2.65;;;;;;;54.85;9.29;100859.63;31209413;28;97322;-70
2023/09/27 11:06:14;;;;;;;10.57;2.90;;;;;;;57.91;7.50;100833.59;31206977;28;98381;-65
2023/09/27 11:21:15;;;;;;;6.57;2.63;;;;;;;56.47;7.45;100811.66;31202364;28;98202;-66
2023/09/27 11:36:16;;;;;;;8.57;2.50;;;;;;;55.20;7.84;100785.34;31215073;27;96716;-65
2023/09/27 11:51:16;;;;;;;9.63;3.22;;;;;;;52.57;8.54;100752.00;31223832;27;102540;-75
2023/09/27 12:06:16;;;;;;;8.98;3.35;;;;;;;52.31;8.85;100748.22;31223121;28;113830;-81
2023/09/27 12:21:17;;;;;;;8.25;3.17;;;;;;;52.44;8.52;100731.25;31220609;28;96849;-80
2023/09/27 12:36:17;;;;;;;8.73;4.68;;;;;;;50.55;9.53;100693.41;31218864;28;97445;-75
2023/09/27 12:51:17;;;;;;;7.78;2.90;;;;;;;48.62;10.37;100686.16;31216439;27;97144;-77
2023/09/27 13:06:18;;;;;;;7.35;3.30;;;;;;;46.70;11.11;100663.31;31216285;28;97646;-82
2023/09/27 13:21:18;;;;;;;12.52;3.30;;;;;;;45.76;11.63;100654.13;31218138;28;97200;-73
2023/09/27 13:36:18;;;;;;;8.68;3.58;;;;;;;44.78;12.65;100656.66;31217092;28;96792;-74
2023/09/27 13:51:19;;;;;;;;;;;;;;;43.54;13.39;100636.47;31213536;27;96878;-80
2023/09/27 14:06:19;;;;;;;7.80;3.47;;;;;;;34.63;20.64;100624.59;31213605;28;97409;-77
2023/09/27 14:21:20;;;;;;;7.75;3.60;;;;;;;31.70;24.06;100602.69;31210234;28;97193;-71
2023/09/27 14:36:22;;;;;;;6.68;4.20;;;;;;;29.97;26.41;100596.53;31209662;28;97281;-62
2023/09/27 14:51:22;;;;;;;9.80;3.97;;;;;;;28.98;28.05;100587.41;31208880;28;98394;-61
2023/09/27 15:06:22;;;;;;;9.35;5.00;;;;;;;28.15;29.80;100585.06;31205892;28;103779;-65
2023/09/27 15:21:23;;;;;;;9.13;3.83;;;;;;;27.76;31.14;100590.31;31206171;28;97262;-63
2023/09/27 15:36:23;;;;;;;9.85;4.10;;;;;;;26.98;32.74;100571.16;31201567;28;97467;-71
2023/09/27 15:51:24;;;;;;;12.38;4.63;;;;;;;26.20;34.52;100577.41;31202985;27;96823;-68
2023/09/27 16:06:24;;;;;;;8.55;4.15;;;;;;;25.31;36.56;100566.91;31200742;28;96927;-65
2023/09/27 16:21:24;;;;;;;15.02;5.65;;;;;;;24.45;38.27;100576.66;31211041;27;112246;-73
2023/09/27 16:36:25;;;;;;;10.90;4.53;;;;;;;23.64;40.43;100577.91;31220788;28;97295;-78
2023/09/27 16:51:25;;;;;;;12.07;6.03;;;;;;;22.84;42.39;100574.34;31216765;27;104904;-74
2023/09/27 17:06:25;;;;;;;16.70;6.20;;;;;;;22.18;44.18;100580.03;31216609;28;97518;-69
2023/09/27 17:21:26;;;;;;;11.97;5.57;;;;;;;21.63;45.81;100598.31;31216641;28;101582;-71
2023/09/27 17:36:27;;;;;;;17.00;6.37;;;;;;;21.14;47.32;100603.00;31213543;27;97181;-75
2023/09/27 17:51:28;;;;;;;19.17;6.53;;;;;;;20.67;49.03;100609.00;31214008;27;97933;-67
2023/09/27 18:06:29;;;;;;;14.17;6.17;;;;;;;20.25;50.26;100606.97;31212991;28;97470;-68
2023/09/27 18:21:29;;;;;;;13.55;5.43;;;;;;;19.89;51.52;100615.88;31209520;28;116505;-68
2023/09/27 18:36:30;;;;;;;10.57;5.70;;;;;;;19.60;52.52;100624.38;31208982;28;112536;-65
2023/09/27 18:51:30;;;;;;;10.90;6.72;;;;;;;19.27;53.69;100614.63;31209513;28;97409;-67
2023/09/27 19:06:30;;;;;;;17.15;6.97;;;;;;;18.97;54.79;100619.75;31208552;28;108203;-61
2023/09/27 19:21:31;;;;;;;13.50;7.10;;;;;;;18.58;55.91;100622.38;31206976;28;96745;-76
2023/09/27 19:36:31;;;;;;;9.45;6.18;;;;;;;18.41;56.87;100607.69;31205125;28;111305;-66
2023/09/27 19:51:31;;;;;;;13.90;6.43;;;;;;;18.05;57.50;100617.94;31210529;28;96671;-78
2023/09/27 20:06:39;;;;;;;10.32;6.35;;;;;;;17.88;58.11;100604.03;31224823;28;97118;-77
2023/09/27 20:21:39;;;;;;;11.00;6.47;;;;;;;17.79;58.60;100597.19;31223700;28;97134;-69
2023/09/27 20:36:40;;;;;;;9.88;6.55;;;;;;;17.71;59.07;100608.19;31203288;28;117089;-80
2023/09/27 20:51:40;;;;;;;11.67;7.10;;;;;;;17.64;59.34;100604.69;31222840;28;97707;-76
2023/09/27 21:06:41;;;;;;;11.52;7.47;;;;;;;17.50;59.76;100604.66;31221011;28;96637;-77
2023/09/27 21:21:42;;;;;;;16.53;8.37;;;;;;;17.36;60.69;100602.97;31218482;28;97408;-79
2023/09/27 21:36:42;;;;;;;11.93;8.02;;;;;;;17.19;61.00;100600.66;31218413;28;97436;-74
2023/09/27 21:51:43;;;;;;;13.20;8.77;;;;;;;17.00;61.62;100593.38;31217648;27;97455;-66
2023/09/27 22:06:45;;;;;;;14.50;8.63;;;;;;;16.82;62.21;100597.44;31216917;28;96707;-68
2023/09/27 22:21:46;;;;;;;;;;;;;;;16.66;62.90;100584.34;31220562;27;98027;-77
2023/09/27 22:36:46;;;;;;;12.47;8.77;;;;;;;16.44;63.40;100572.88;31215104;28;97224;-75
2023/09/27 22:51:47;;;;;;;13.63;8.80;;;;;;;16.16;64.31;100571.88;31211406;27;97247;-72
2023/09/27 23:07:00;;;;;;;19.83;9.57;;;;;;;15.81;65.24;100569.16;31210243;28;97364;-79
2023/09/27 23:22:00;;;;;;;;;;;;;;;15.52;65.76;100570.97;31208917;28;97748;-77
2023/09/27 23:52:07;;;;;;;19.63;11.47;;;;;;;15.07;67.35;100563.13;31228558;27;97313;-77
